Time;durP1;ratioP1;P1;durP2;ratioP2;P2;SDS_P1;SDS_P2;PMS_P1;PMS_P2;Temp;Humidity;BMP_temperature;BMP_pressure;BME280_temperature;BME280_humidity;BME280_pressure;Samples;Min_cycle;Max_cycle;Signal;HPM_P1;HPM_P2
2023/04/06 00:00:12;;;;;;;;;;;;;;;;;;5093298;28;19908;-66
2023/04/06 00:02:38;;;;;;;;;;;;;;;;;;5093442;28;19908;-66
2023/04/06 00:05:04;;;;;;;;;;;;;;;;;;5092827;28;20380;-66
2023/04/06 00:07:30;;;;;;;;;;;;;;;;;;5093550;28;19908;-66
2023/04/06 00:09:56;;;;;;;;;;;;;;;;;;5075084;28;19912;-66
2023/04/06 00:12:22;;;;;;;;;;;;;;;;;;5092817;28;19953;-66
2023/04/06 00:14:48;;;;;;;;;;;;;;;;;;5093251;28;19923;-66
2023/04/06 00:17:14;;;;;;;;;;;;;;;;;;5093197;28;19981;-66
2023/04/06 00:19:40;;;;;;;;;;;;;;;;;;5095757;28;19915;-66
2023/04/06 00:22:06;;;;;;;;;;;;;;;;;;5096819;28;19908;-66
2023/04/06 00:24:32;;;;;;;;;;;;;;;;;;5078325;28;19947;-66
2023/04/06 00:26:58;;;;;;;;;;;;;;;;;;5096650;28;19992;-66
2023/04/06 00:29:24;;;;;;;;;;;;;;;;;;5096594;28;19912;-66
2023/04/06 00:31:50;;;;;;;;;;;;;;;;;;5096181;28;19908;-66
2023/04/06 00:34:16;;;;;;;;;;;;;;;;;;5096727;28;19953;-66
2023/04/06 00:36:42;;;;;;;;;;;;;;;;;;5097059;28;19908;-66
2023/04/06 00:39:08;;;;;;;;;;;;;;;;;;5095959;28;19971;-66
2023/04/06 00:41:34;;;;;;;;;;;;;;;;;;5096368;28;19912;-66
2023/04/06 00:44:00;;;;;;;;;;;;;;;;;;5096320;28;19951;-66
2023/04/06 00:46:26;;;;;;;;;;;;;;;;;;5077800;28;19944;-66
2023/04/06 00:48:52;;;;;;;;;;;;;;;;;;5096740;28;19916;-66
2023/04/06 00:51:17;;;;;;;;;;;;;;;;;;5096242;28;20403;-66
2023/04/06 00:53:43;;;;;;;;;;;;;;;;;;5095627;28;20089;-66
2023/04/06 00:56:09;;;;;;;;;;;;;;;;;;5095999;28;19916;-66
2023/04/06 00:58:38;;;;;;;;;;;;;;;;;;5096053;28;19915;-66
2023/04/06 01:01:04;;;;;;;;;;;;;;;;;;5095622;28;19912;-66
2023/04/06 01:03:30;;;;;;;;;;;;;;;;;;5095971;28;19908;-68
2023/04/06 01:05:58;;;;;;;;;;;;;;;;;;5095941;28;19961;-66
2023/04/06 01:08:24;;;;;;;;;;;;;;;;;;5095498;28;19912;-66
2023/04/06 01:10:50;;;;;;;;;;;;;;;;;;5095821;28;19912;-66
2023/04/06 01:13:16;;;;;;;;;;;;;;;;;;5096067;28;20009;-67
2023/04/06 01:15:42;;;;;;;;;;;;;;;;;;5095328;28;20372;-66
2023/04/06 01:18:10;;;;;;;;;;;;;;;;;;5096003;28;19940;-66
2023/04/06 01:20:36;;;;;;;;;;;;;;;;;;5095620;28;19995;-66
2023/04/06 01:23:01;;;;;;;;;;;;;;;;;;5076970;28;19958;-66
2023/04/06 01:25:27;;;;;;;;;;;;;;;;;;5095527;28;19915;-66
2023/04/06 01:27:54;;;;;;;;;;;;;;;;;;5077017;28;19909;-66
2023/04/06 01:30:20;;;;;;;;;;;;;;;;;;5077129;28;19999;-66
2023/04/06 01:32:46;;;;;;;;;;;;;;;;;;5095437;28;19907;-66
2023/04/06 01:35:12;;;;;;;;;;;;;;;;;;5094846;28;19974;-66
2023/04/06 01:37:38;;;;;;;;;;;;;;;;;;5095739;28;19915;-66
2023/04/06 01:40:04;;;;;;;;;;;;;;;;;;5095288;28;19912;-67
2023/04/06 01:42:30;;;;;;;;;;;;;;;;;;5095198;28;20279;-66
2023/04/06 01:44:56;;;;;;;;;;;;;;;;;;5095299;28;19909;-66
2023/04/06 01:47:22;;;;;;;;;;;;;;;;;;5095148;28;20344;-66
2023/04/06 01:49:48;;;;;;;;;;;;;;;;;;5094731;28;19912;-66
2023/04/06 01:52:15;;;;;;;;;;;;;;;;;;5095296;28;19912;-66
2023/04/06 01:54:41;;;;;;;;;;;;;;;;;;5076633;28;19920;-66
2023/04/06 01:57:07;;;;;;;;;;;;;;;;;;5076390;28;19915;-66
2023/04/06 01:59:33;;;;;;;;;;;;;;;;;;5095167;28;19916;-66
2023/04/06 02:01:59;;;;;;;;;;;;;;;;;;5094847;28;19962;-66
2023/04/06 02:04:25;;;;;;;;;;;;;;;;;;5094648;28;19908;-66
2023/04/06 02:06:51;;;;;;;;;;;;;;;;;;5094770;28;19915;-66
2023/04/06 02:09:17;;;;;;;;;;;;;;;;;;5094682;28;19912;-66
2023/04/06 02:11:43;;;;;;;;;;;;;;;;;;5094287;28;19991;-66
2023/04/06 02:14:09;;;;;;;;;;;;;;;;;;5094491;28;19908;-66
2023/04/06 02:16:35;;;;;;;;;;;;;;;;;;5076321;28;19915;-66
2023/04/06 02:19:01;;;;;;;;;;;;;;;;;;5094103;28;19908;-66
2023/04/06 02:21:27;;;;;;;;;;;;;;;;;;5094440;28;19914;-66
2023/04/06 02:23:53;;;;;;;;;;;;;;;;;;5094424;28;19908;-66
2023/04/06 02:26:20;;;;;;;;;;;;;;;;;;5094023;28;19908;-66
2023/04/06 02:28:46;;;;;;;;;;;;;;;;;;5094515;28;19961;-66
2023/04/06 02:31:12;;;;;;;;;;;;;;;;;;5094194;28;19908;-66
2023/04/06 02:33:38;;;;;;;;;;;;;;;;;;5094295;28;20371;-66
2023/04/06 02:36:04;;;;;;;;;;;;;;;;;;5094391;28;19920;-66
2023/04/06 02:38:30;;;;;;;;;;;;;;;;;;5093803;28;19912;-66
2023/04/06 02:40:56;;;;;;;;;;;;;;;;;;5093675;28;19908;-66
2023/04/06 02:43:22;;;;;;;;;;;;;;;;;;5094653;28;20298;-66
2023/04/06 02:45:48;;;;;;;;;;;;;;;;;;5075586;28;19908;-67
2023/04/06 02:48:14;;;;;;;;;;;;;;;;;;5094124;28;19919;-66
2023/04/06 02:50:40;;;;;;;;;;;;;;;;;;5094034;28;19908;-66
2023/04/06 02:53:06;;;;;;;;;;;;;;;;;;5093468;28;19919;-65
2023/04/06 02:55:32;;;;;;;;;;;;;;;;;;5094179;28;19926;-65
2023/04/06 02:57:58;;;;;;;;;;;;;;;;;;5094005;28;19954;-66
2023/04/06 03:00:24;;;;;;;;;;;;;;;;;;5093586;28;19919;-65
2023/04/06 03:02:50;;;;;;;;;;;;;;;;;;5094072;28;19916;-66
2023/04/06 03:05:16;;;;;;;;;;;;;;;;;;5094163;28;20006;-66
2023/04/06 03:07:42;;;;;;;;;;;;;;;;;;5093704;28;20343;-65
2023/04/06 03:10:09;;;;;;;;;;;;;;;;;;5075774;28;19908;-66
2023/04/06 03:12:35;;;;;;;;;;;;;;;;;;5093823;28;19961;-65
2023/04/06 03:15:01;;;;;;;;;;;;;;;;;;5093367;28;19920;-65
2023/04/06 03:17:27;;;;;;;;;;;;;;;;;;5093807;28;19909;-66
2023/04/06 03:19:53;;;;;;;;;;;;;;;;;;5075586;28;20372;-65
2023/04/06 03:22:19;;;;;;;;;;;;;;;;;;5093318;28;19915;-65
2023/04/06 03:24:45;;;;;;;;;;;;;;;;;;5093643;28;19914;-65
2023/04/06 03:27:11;;;;;;;;;;;;;;;;;;5093821;28;20002;-65
2023/04/06 03:29:37;;;;;;;;;;;;;;;;;;5093283;28;20372;-65
2023/04/06 03:32:03;;;;;;;;;;;;;;;;;;5075514;28;19956;-66
2023/04/06 03:34:28;;;;;;;;;;;;;;;;;;5093358;28;19944;-65
2023/04/06 03:36:54;;;;;;;;;;;;;;;;;;5094144;28;19912;-65
2023/04/06 03:39:20;;;;;;;;;;;;;;;;;;5093573;28;19999;-68
2023/04/06 03:41:46;;;;;;;;;;;;;;;;;;5093310;28;19912;-67
2023/04/06 03:44:12;;;;;;;;;;;;;;;;;;5093871;28;20356;-67
2023/04/06 03:46:38;;;;;;;;;;;;;;;;;;5093665;28;19915;-67
2023/04/06 03:49:04;;;;;;;;;;;;;;;;;;5093091;28;19913;-67
2023/04/06 03:51:31;;;;;;;;;;;;;;;;;;5093526;28;20321;-66
2023/04/06 03:53:56;;;;;;;;;;;;;;;;;;5095254;28;19926;-65
2023/04/06 03:56:22;;;;;;;;;;;;;;;;;;5096837;28;20022;-67
2023/04/06 03:58:51;;;;;;;;;;;;;;;;;;5097238;28;19915;-66
2023/04/06 04:01:18;;;;;;;;;;;;;;;;;;5097815;28;20354;-67
2023/04/06 04:03:44;;;;;;;;;;;;;;;;;;5096771;28;19912;-66
2023/04/06 04:06:10;;;;;;;;;;;;;;;;;;5078924;28;19908;-66
2023/04/06 04:08:36;;;;;;;;;;;;;;;;;;5097120;28;19998;-67
2023/04/06 04:11:02;;;;;;;;;;;;;;;;;;5096594;28;19908;-67
2023/04/06 04:13:28;;;;;;;;;;;;;;;;;;5078774;28;19908;-67
2023/04/06 04:15:54;;;;;;;;;;;;;;;;;;5096854;28;20459;-67
2023/04/06 04:18:20;;;;;;;;;;;;;;;;;;5096592;28;19909;-67
2023/04/06 04:20:46;;;;;;;;;;;;;;;;;;5078424;28;19970;-65
2023/04/06 04:23:12;;;;;;;;;;;;;;;;;;5078185;28;19951;-66
2023/04/06 04:25:37;;;;;;;;;;;;;;;;;;5096364;28;19908;-67
2023/04/06 04:28:03;;;;;;;;;;;;;;;;;;5096781;28;19995;-68
2023/04/06 04:30:30;;;;;;;;;;;;;;;;;;5095776;28;20382;-67
2023/04/06 04:32:56;;;;;;;;;;;;;;;;;;5096213;28;19908;-67
2023/04/06 04:35:22;;;;;;;;;;;;;;;;;;5094651;28;20426;-65
2023/04/06 04:37:48;;;;;;;;;;;;;;;;;;5094015;28;20052;-65
2023/04/06 04:40:14;;;;;;;;;;;;;;;;;;5094394;28;19919;-65
2023/04/06 04:42:40;;;;;;;;;;;;;;;;;;5075957;28;19916;-67
2023/04/06 04:45:06;;;;;;;;;;;;;;;;;;5093826;28;20238;-65
2023/04/06 04:47:32;;;;;;;;;;;;;;;;;;5094173;28;19923;-65
2023/04/06 04:49:58;;;;;;;;;;;;;;;;;;5094048;28;20011;-65
2023/04/06 04:52:24;;;;;;;;;;;;;;;;;;5093738;28;20002;-66
2023/04/06 04:54:50;;;;;;;;;;;;;;;;;;5093984;28;20011;-65
2023/04/06 04:57:16;;;;;;;;;;;;;;;;;;5094819;28;19908;-65
2023/04/06 04:59:42;;;;;;;;;;;;;;;;;;5095646;28;19908;-65
2023/04/06 05:02:08;;;;;;;;;;;;;;;;;;5096144;28;19939;-66
2023/04/06 05:04:34;;;;;;;;;;;;;;;;;;5077449;28;19912;-65
2023/04/06 05:06:59;;;;;;;;;;;;;;;;;;5095473;28;19912;-66
2023/04/06 05:09:25;;;;;;;;;;;;;;;;;;5090951;28;19908;-66
2023/04/06 05:11:51;;;;;;;;;;;;;;;;;;5073123;28;19992;-66
2023/04/06 05:14:18;;;;;;;;;;;;;;;;;;5089201;28;19965;-67
2023/04/06 05:16:44;;;;;;;;;;;;;;;;;;5092695;28;19912;-66
2023/04/06 05:19:11;;;;;;;;;;;;;;;;;;5093500;28;20429;-66
2023/04/06 05:21:37;;;;;;;;;;;;;;;;;;5092245;28;20071;-64
2023/04/06 05:24:03;;;;;;;;;;;;;;;;;;5091602;28;20015;-64
2023/04/06 05:26:29;;;;;;;;;;;;;;;;;;5107189;28;19907;-65
2023/04/06 05:28:55;;;;;;;;;;;;;;;;;;5114072;28;20007;-63
2023/04/06 05:31:21;;;;;;;;;;;;;;;;;;5094355;28;19918;-64
2023/04/06 05:33:47;;;;;;;;;;;;;;;;;;5074725;28;19961;-64
2023/04/06 05:36:13;;;;;;;;;;;;;;;;;;5092454;28;19966;-64
2023/04/06 05:38:39;;;;;;;;;;;;;;;;;;5089384;28;20561;-63
2023/04/06 05:41:05;;;;;;;;;;;;;;;;;;5092320;28;19911;-63
2023/04/06 05:43:31;;;;;;;;;;;;;;;;;;5072895;28;19961;-63
2023/04/06 05:45:57;;;;;;;;;;;;;;;;;;5092515;28;19915;-62
2023/04/06 05:48:23;;;;;;;;;;;;;;;;;;5089494;28;19908;-65
2023/04/06 05:50:50;;;;;;;;;;;;;;;;;;5090821;28;19912;-65
2023/04/06 05:53:16;;;;;;;;;;;;;;;;;;5091878;28;19916;-63
2023/04/06 05:55:42;;;;;;;;;;;;;;;;;;5092262;28;19927;-63
2023/04/06 05:58:08;;;;;;;;;;;;;;;;;;5092588;28;19908;-64
2023/04/06 06:00:34;;;;;;;;;;;;;;;;;;5091939;28;20329;-64
2023/04/06 06:03:00;;;;;;;;;;;;;;;;;;5089167;28;19925;-64
2023/04/06 06:05:32;;;;;;;;;;;;;;;;;;5089964;28;19954;-64
2023/04/06 06:07:57;;;;;;;;;;;;;;;;;;5087742;28;19912;-65
2023/04/06 06:10:23;;;;;;;;;;;;;;;;;;5090304;28;19920;-63
2023/04/06 06:12:49;;;;;;;;;;;;;;;;;;5091457;28;19943;-62
2023/04/06 06:15:15;;;;;;;;;;;;;;;;;;5086982;28;20299;-62
2023/04/06 06:17:41;;;;;;;;;;;;;;;;;;5084441;28;19918;-63
2023/04/06 06:20:07;;;;;;;;;;;;;;;;;;5071484;28;19915;-62
2023/04/06 06:22:33;;;;;;;;;;;;;;;;;;5091521;28;20007;-62
2023/04/06 06:24:59;;;;;;;;;;;;;;;;;;5091416;28;19912;-62
2023/04/06 06:27:26;;;;;;;;;;;;;;;;;;5090963;28;19908;-65
2023/04/06 06:29:52;;;;;;;;;;;;;;;;;;5076334;28;20003;-65
2023/04/06 06:32:18;;;;;;;;;;;;;;;;;;5070328;28;19951;-67
2023/04/06 06:34:44;;;;;;;;;;;;;;;;;;5073175;28;19955;-66
2023/04/06 06:37:10;;;;;;;;;;;;;;;;;;5090237;28;20435;-66
2023/04/06 06:39:36;;;;;;;;;;;;;;;;;;5071970;28;19919;-65
2023/04/06 06:42:02;;;;;;;;;;;;;;;;;;5090016;28;20295;-67
2023/04/06 06:44:28;;;;;;;;;;;;;;;;;;5088578;28;19908;-65
2023/04/06 06:46:54;;;;;;;;;;;;;;;;;;5089113;28;20454;-64
2023/04/06 06:49:20;;;;;;;;;;;;;;;;;;5088494;28;19974;-64
2023/04/06 06:51:46;;;;;;;;;;;;;;;;;;5089045;28;19990;-65
2023/04/06 06:54:12;;;;;;;;;;;;;;;;;;5090034;28;20410;-65
2023/04/06 06:56:38;;;;;;;;;;;;;;;;;;5090646;28;19923;-64
2023/04/06 06:59:04;;;;;;;;;;;;;;;;;;5084280;28;19912;-67
2023/04/06 07:01:30;;;;;;;;;;;;;;;;;;5088604;28;19908;-65
2023/04/06 07:03:56;;;;;;;;;;;;;;;;;;5078255;28;20286;-67
2023/04/06 07:06:22;;;;;;;;;;;;;;;;;;5089786;28;19964;-65
2023/04/06 07:08:48;;;;;;;;;;;;;;;;;;5088130;28;19942;-64
2023/04/06 07:11:14;;;;;;;;;;;;;;;;;;5087989;28;19965;-65
2023/04/06 07:13:39;;;;;;;;;;;;;;;;;;5088768;28;19947;-66
2023/04/06 07:16:05;;;;;;;;;;;;;;;;;;5090087;28;19917;-66
2023/04/06 07:18:31;;;;;;;;;;;;;;;;;;5082888;28;19913;-64
2023/04/06 07:20:57;;;;;;;;;;;;;;;;;;5086541;28;19908;-65
2023/04/06 07:23:23;;;;;;;;;;;;;;;;;;5060225;28;19957;-63
2023/04/06 07:25:52;;;;;;;;;;;;;;;;;;5083716;28;20325;-64
2023/04/06 07:28:18;;;;;;;;;;;;;;;;;;5093065;28;19957;-64
2023/04/06 07:30:44;;;;;;;;;;;;;;;;;;5092577;28;20018;-63
2023/04/06 07:33:10;;;;;;;;;;;;;;;;;;5092781;28;19909;-63
2023/04/06 07:35:36;;;;;;;;;;;;;;;;;;5093970;28;19919;-65
2023/04/06 07:38:02;;;;;;;;;;;;;;;;;;5095839;28;20228;-66
2023/04/06 07:40:31;;;;;;;;;;;;;;;;;;5095399;28;19996;-64
2023/04/06 07:42:57;;;;;;;;;;;;;;;;;;5095125;28;19909;-65
2023/04/06 07:45:23;;;;;;;;;;;;;;;;;;5080204;28;19916;-66
2023/04/06 07:47:49;;;;;;;;;;;;;;;;;;5086325;28;20010;-64
2023/04/06 07:50:15;;;;;;;;;;;;;;;;;;5092455;28;19951;-65
2023/04/06 07:52:41;;;;;;;;;;;;;;;;;;5092320;28;19946;-65
2023/04/06 07:55:07;;;;;;;;;;;;;;;;;;5091552;28;20257;-64
2023/04/06 07:57:33;;;;;;;;;;;;;;;;;;5094654;28;19912;-66
2023/04/06 08:00:00;;;;;;;;;;;;;;;;;;5095197;28;19974;-64
2023/04/06 08:02:26;;;;;;;;;;;;;;;;;;5077115;28;19915;-68
2023/04/06 08:04:52;;;;;;;;;;;;;;;;;;5077707;28;19908;-66
2023/04/06 08:07:18;;;;;;;;;;;;;;;;;;5090895;28;20268;-66
2023/04/06 08:09:44;;;;;;;;;;;;;;;;;;5070824;28;19923;-65
2023/04/06 08:12:10;;;;;;;;;;;;;;;;;;5080523;28;19916;-65
2023/04/06 08:14:36;;;;;;;;;;;;;;;;;;5087130;28;19916;-65
2023/04/06 08:17:02;;;;;;;;;;;;;;;;;;5090174;28;19912;-66
2023/04/06 08:19:28;;;;;;;;;;;;;;;;;;5087692;28;19955;-65
2023/04/06 08:21:54;;;;;;;;;;;;;;;;;;5088655;28;19948;-65
2023/04/06 08:24:20;;;;;;;;;;;;;;;;;;5086224;28;19908;-64
2023/04/06 08:26:46;;;;;;;;;;;;;;;;;;5088556;28;19912;-63
2023/04/06 08:29:12;;;;;;;;;;;;;;;;;;5084249;28;19908;-65
2023/04/06 08:31:38;;;;;;;;;;;;;;;;;;5086397;28;19919;-65
2023/04/06 08:34:05;;;;;;;;;;;;;;;;;;5090518;28;20386;-62
2023/04/06 08:36:31;;;;;;;;;;;;;;;;;;5088909;28;19916;-64
2023/04/06 08:38:56;;;;;;;;;;;;;;;;;;5090794;28;19919;-64
2023/04/06 08:41:22;;;;;;;;;;;;;;;;;;5093069;28;20291;-64
2023/04/06 08:43:48;;;;;;;;;;;;;;;;;;5090855;28;19962;-64
2023/04/06 08:46:14;;;;;;;;;;;;;;;;;;5084288;28;20028;-65
2023/04/06 08:48:41;;;;;;;;;;;;;;;;;;5070740;28;20386;-69
2023/04/06 08:51:10;;;;;;;;;;;;;;;;;;5091260;28;20249;-64
2023/04/06 08:53:36;;;;;;;;;;;;;;;;;;5093305;28;20015;-65
2023/04/06 08:56:01;;;;;;;;;;;;;;;;;;5093536;28;20011;-64
2023/04/06 08:58:27;;;;;;;;;;;;;;;;;;5092083;28;19916;-65
2023/04/06 09:00:53;;;;;;;;;;;;;;;;;;5083306;28;19919;-65
2023/04/06 09:03:19;;;;;;;;;;;;;;;;;;5066465;28;20433;-65
2023/04/06 09:05:45;;;;;;;;;;;;;;;;;;5074172;28;19916;-66
2023/04/06 09:08:11;;;;;;;;;;;;;;;;;;5090294;28;20526;-66
2023/04/06 09:10:37;;;;;;;;;;;;;;;;;;5090493;28;19911;-66
2023/04/06 09:13:04;;;;;;;;;;;;;;;;;;5080940;28;19915;-66
2023/04/06 09:15:30;;;;;;;;;;;;;;;;;;5092038;28;19919;-65
2023/04/06 09:17:56;;;;;;;;;;;;;;;;;;5093729;28;19908;-66
2023/04/06 09:20:22;;;;;;;;;;;;;;;;;;5091834;28;19915;-65
2023/04/06 09:22:49;;;;;;;;;;;;;;;;;;5092264;28;20423;-66
2023/04/06 09:25:15;;;;;;;;;;;;;;;;;;5092177;28;20303;-65
2023/04/06 09:27:41;;;;;;;;;;;;;;;;;;5091990;28;19912;-65
2023/04/06 09:30:07;;;;;;;;;;;;;;;;;;5089547;28;19908;-65
2023/04/06 09:32:33;;;;;;;;;;;;;;;;;;5090388;28;19914;-66
2023/04/06 09:34:59;;;;;;;;;;;;;;;;;;5091600;28;20018;-67
2023/04/06 09:37:25;;;;;;;;;;;;;;;;;;5091280;28;19908;-64
2023/04/06 09:39:52;;;;;;;;;;;;;;;;;;5089735;28;19915;-65
2023/04/06 09:42:18;;;;;;;;;;;;;;;;;;5085639;28;19908;-66
2023/04/06 09:44:44;;;;;;;;;;;;;;;;;;5089703;28;20060;-67
2023/04/06 09:47:10;;;;;;;;;;;;;;;;;;5090675;28;19912;-67
2023/04/06 09:49:36;;;;;;;;;;;;;;;;;;5086974;28;20529;-65
2023/04/06 09:52:02;;;;;;;;;;;;;;;;;;5093139;28;19909;-65
2023/04/06 09:54:28;;;;;;;;;;;;;;;;;;5091115;28;20284;-65
2023/04/06 09:56:54;;;;;;;;;;;;;;;;;;5091311;28;19947;-65
2023/04/06 09:59:20;;;;;;;;;;;;;;;;;;5088261;28;19942;-65
2023/04/06 10:01:45;;;;;;;;;;;;;;;;;;5073258;28;19908;-64
2023/04/06 10:04:11;;;;;;;;;;;;;;;;;;5092365;28;19958;-65
2023/04/06 10:06:37;;;;;;;;;;;;;;;;;;5074269;28;20007;-65
2023/04/06 10:09:03;;;;;;;;;;;;;;;;;;5092583;28;19947;-65
2023/04/06 10:11:29;;;;;;;;;;;;;;;;;;5092420;28;20280;-65
2023/04/06 10:13:55;;;;;;;;;;;;;;;;;;5093064;28;19915;-66
2023/04/06 10:16:21;;;;;;;;;;;;;;;;;;5092715;28;20325;-66
2023/04/06 10:18:47;;;;;;;;;;;;;;;;;;5093199;28;19915;-66
2023/04/06 10:21:13;;;;;;;;;;;;;;;;;;5075600;28;19914;-66
2023/04/06 10:23:40;;;;;;;;;;;;;;;;;;5092672;28;19912;-66
2023/04/06 10:26:09;;;;;;;;;;;;;;;;;;5091044;28;19908;-66
2023/04/06 10:28:35;;;;;;;;;;;;;;;;;;5091031;28;20395;-67
2023/04/06 10:31:01;;;;;;;;;;;;;;;;;;5091129;28;19915;-65
2023/04/06 10:33:27;;;;;;;;;;;;;;;;;;5092400;28;19908;-64
2023/04/06 10:35:55;;;;;;;;;;;;;;;;;;5090158;28;19927;-65
2023/04/06 10:38:22;;;;;;;;;;;;;;;;;;5091057;28;20284;-64
2023/04/06 10:40:48;;;;;;;;;;;;;;;;;;5092235;28;19956;-65
2023/04/06 10:43:14;;;;;;;;;;;;;;;;;;5091181;28;19955;-66
2023/04/06 10:45:40;;;;;;;;;;;;;;;;;;5089880;28;19934;-65
2023/04/06 10:48:06;;;;;;;;;;;;;;;;;;5090359;28;20264;-66
2023/04/06 10:50:32;;;;;;;;;;;;;;;;;;5090509;28;19908;-64
2023/04/06 10:52:58;;;;;;;;;;;;;;;;;;5091374;28;19930;-64
2023/04/06 10:55:25;;;;;;;;;;;;;;;;;;5091365;28;19935;-64
2023/04/06 10:57:51;;;;;;;;;;;;;;;;;;5090579;28;19919;-66
2023/04/06 11:00:17;;;;;;;;;;;;;;;;;;5088644;28;20481;-65
2023/04/06 11:02:43;;;;;;;;;;;;;;;;;;5089513;28;19908;-65
2023/04/06 11:05:09;;;;;;;;;;;;;;;;;;5090216;28;20002;-62
2023/04/06 11:07:35;;;;;;;;;;;;;;;;;;5090110;28;19912;-65
2023/04/06 11:10:01;;;;;;;;;;;;;;;;;;5091480;28;19908;-65
2023/04/06 11:12:27;;;;;;;;;;;;;;;;;;5091441;28;20418;-66
2023/04/06 11:14:53;;;;;;;;;;;;;;;;;;5092523;28;20368;-66
2023/04/06 11:17:19;;;;;;;;;;;;;;;;;;5092479;28;20478;-64
2023/04/06 11:19:45;;;;;;;;;;;;;;;;;;5092163;28;19995;-65
2023/04/06 11:24:41;;;;;;;;;;;;;;;;;;5151753;27;19938;-64
2023/04/06 11:27:07;;;;;;;;;;;;;;;;;;5150251;27;20367;-65
2023/04/06 11:29:35;;;;;;;;;;;;;;;;;;5151410;27;19915;-66
2023/04/06 11:32:01;;;;;;;;;;;;;;;;;;5150891;27;19932;-66
2023/04/06 11:34:27;;;;;;;;;;;;;;;;;;5151001;27;20014;-65
2023/04/06 11:36:53;;;;;;;;;;;;;;;;;;5151051;27;20086;-64
2023/04/06 11:39:19;;;;;;;;;;;;;;;;;;5151371;27;19912;-63
2023/04/06 11:41:45;;;;;;;;;;;;;;;;;;5151219;27;19947;-65
2023/04/06 11:44:11;;;;;;;;;;;;;;;;;;5150267;27;19919;-65
2023/04/06 11:46:37;;;;;;;;;;;;;;;;;;5148682;27;19918;-65
2023/04/06 11:49:03;;;;;;;;;;;;;;;;;;5148123;27;19932;-66
2023/04/06 11:51:29;;;;;;;;;;;;;;;;;;5148099;27;19912;-67
2023/04/06 11:53:55;;;;;;;;;;;;;;;;;;5147691;27;19907;-66
2023/04/06 11:56:21;;;;;;;;;;;;;;;;;;5128282;27;20002;-65
2023/04/06 11:58:47;;;;;;;;;;;;;;;;;;5129586;27;20033;-65
2023/04/06 12:01:13;;;;;;;;;;;;;;;;;;5129714;27;19914;-66
2023/04/06 12:03:39;;;;;;;;;;;;;;;;;;5138802;27;19926;-65
2023/04/06 12:06:05;;;;;;;;;;;;;;;;;;5115696;27;19930;-65
2023/04/06 12:08:31;;;;;;;;;;;;;;;;;;5135817;27;19915;-64
2023/04/06 12:10:59;;;;;;;;;;;;;;;;;;5129703;28;19908;-64
2023/04/06 12:13:25;;;;;;;;;;;;;;;;;;5129641;27;19938;-64
2023/04/06 12:15:51;;;;;;;;;;;;;;;;;;5130087;28;19965;-64
2023/04/06 12:18:17;;;;;;;;;;;;;;;;;;5130434;28;19912;-66
2023/04/06 12:20:43;;;;;;;;;;;;;;;;;;5130700;28;19948;-66
2023/04/06 12:23:09;;;;;;;;;;;;;;;;;;5129728;28;20391;-65
2023/04/06 12:26:19;;;;;;;;;;;;;;;;;;5130945;27;20401;-66
2023/04/06 12:30:56;;;;;;;;;;;;;;;;;;5090510;27;20277;-65
2023/04/06 12:33:22;;;;;;;;;;;;;;;;;;5090143;28;20431;-66
2023/04/06 12:39:38;;;;;;;;;;;;;;;;;;5088216;27;19919;-65
2023/04/06 12:42:04;;;;;;;;;;;;;;;;;;5091229;28;19912;-66
2023/04/06 12:44:30;;;;;;;;;;;;;;;;;;5090032;28;19908;-65
2023/04/06 12:46:56;;;;;;;;;;;;;;;;;;5089612;28;20292;-66
2023/04/06 12:49:22;;;;;;;;;;;;;;;;;;5089985;28;20374;-65
2023/04/06 12:51:48;;;;;;;;;;;;;;;;;;5088154;28;19908;-66
2023/04/06 12:54:14;;;;;;;;;;;;;;;;;;5087538;28;20380;-68
2023/04/06 12:58:01;;;;;;;;;;;;;;;;;;5150255;27;19947;-65
2023/04/06 13:02:46;;;;;;;;;;;;;;;;;;5130563;27;20030;-68
2023/04/06 13:06:32;;;;;;;;;;;;;;;;;;5088939;27;19917;-68
2023/04/06 13:08:58;;;;;;;;;;;;;;;;;;5090068;28;20006;-67
2023/04/06 13:11:24;;;;;;;;;;;;;;;;;;5088715;28;19916;-68
2023/04/06 13:13:50;;;;;;;;;;;;;;;;;;5088775;28;20015;-68
2023/04/06 13:16:16;;;;;;;;;;;;;;;;;;5087832;28;19908;-66
2023/04/06 13:18:42;;;;;;;;;;;;;;;;;;5088636;28;19919;-67
2023/04/06 13:22:16;;;;;;;;;;;;;;;;;;5089023;27;19935;-67
2023/04/06 13:24:42;;;;;;;;;;;;;;;;;;5090084;28;19966;-67
2023/04/06 13:29:20;;;;;;;;;;;;;;;;;;5089155;27;19923;-67
2023/04/06 13:32:09;;;;;;;;;;;;;;;;;;5089761;27;19913;-67
2023/04/06 13:34:35;;;;;;;;;;;;;;;;;;5088772;28;20003;-66
2023/04/06 13:37:01;;;;;;;;;;;;;;;;;;5087708;28;19908;-67
2023/04/06 13:41:43;;;;;;;;;;;;;;;;;;5090268;28;19922;-67
2023/04/06 13:44:09;;;;;;;;;;;;;;;;;;5089963;28;19927;-67
2023/04/06 13:46:58;;;;;;;;;;;;;;;;;;5091053;27;19939;-67
2023/04/06 13:49:23;;;;;;;;;;;;;;;;;;5091503;28;20003;-67
2023/04/06 13:51:50;;;;;;;;;;;;;;;;;;5091293;28;19959;-67
2023/04/06 13:56:04;;;;;;;;;;;;;;;;;;5091360;27;19919;-68
2023/04/06 13:58:30;;;;;;;;;;;;;;;;;;5091262;28;19912;-65
2023/04/06 14:00:56;;;;;;;;;;;;;;;;;;5090782;28;19908;-68
2023/04/06 14:04:33;;;;;;;;;;;;;;;;;;5112382;27;19916;-68
2023/04/06 14:06:59;;;;;;;;;;;;;;;;;;5111680;28;20383;-67
2023/04/06 14:11:46;;;;;;;;;;;;;;;;;;5091893;27;19916;-68
2023/04/06 14:14:12;;;;;;;;;;;;;;;;;;5091401;28;20002;-67
2023/04/06 14:16:38;;;;;;;;;;;;;;;;;;5089516;28;19909;-67
2023/04/06 14:20:59;;;;;;;;;;;;;;;;;;5153312;27;20406;-67
2023/04/06 14:23:28;;;;;;;;;;;;;;;;;;5152336;27;19946;-67
2023/04/06 14:25:54;;;;;;;;;;;;;;;;;;5152911;27;19907;-67
2023/04/06 14:30:08;;;;;;;;;;;;;;;;;;5050968;28;19923;-67
2023/04/06 14:32:34;;;;;;;;;;;;;;;;;;5051056;28;20004;-67
2023/04/06 14:35:00;;;;;;;;;;;;;;;;;;5051053;28;19963;-67
2023/04/06 14:39:40;;;;;;;;;;;;;;;;;;5071774;28;19923;-67
2023/04/06 14:42:06;;;;;;;;;;;;;;;;;;5071489;28;20436;-67
2023/04/06 14:44:32;;;;;;;;;;;;;;;;;;5070453;28;19909;-68
2023/04/06 14:46:58;;;;;;;;;;;;;;;;;;5070834;28;19915;-67
2023/04/06 14:50:46;;;;;;;;;;;;;;;;;;5131970;27;19916;-68
2023/04/06 14:53:13;;;;;;;;;;;;;;;;;;5132475;27;19935;-68
2023/04/06 14:55:39;;;;;;;;;;;;;;;;;;5132491;28;19911;-67
2023/04/06 14:58:05;;;;;;;;;;;;;;;;;;5131785;27;19907;-67
2023/04/06 15:00:31;;;;;;;;;;;;;;;;;;5132083;27;19931;-67
2023/04/06 15:02:56;;;;;;;;;;;;;;;;;;5132093;27;19908;-67
2023/04/06 15:05:23;;;;;;;;;;;;;;;;;;5131599;27;19946;-67
2023/04/06 15:07:48;;;;;;;;;;;;;;;;;;5131845;27;19908;-68
2023/04/06 15:10:14;;;;;;;;;;;;;;;;;;5131824;27;19916;-68
2023/04/06 15:14:49;;;;;;;;;;;;;;;;;;5153032;27;19911;-68
2023/04/06 15:17:30;;;;;;;;;;;;;;;;;;5091394;27;20244;-67
2023/04/06 15:19:56;;;;;;;;;;;;;;;;;;5089659;28;19912;-67
2023/04/06 15:24:54;;;;;;;;;;;;;;;;;;5152994;27;19915;-67
2023/04/06 15:27:54;;;;;;;;;;;;;;;;;;5092049;27;20295;-67
2023/04/06 15:34:30;;;;;;;;;;;;;;;;;;5152985;27;19937;-67
2023/04/06 15:37:00;;;;;;;;;;;;;;;;;;5153034;27;19946;-67
2023/04/06 15:40:32;;;;;;;;;;;;;;;;;;5111391;27;19916;-66
2023/04/06 15:42:58;;;;;;;;;;;;;;;;;;5110432;28;19912;-67
2023/04/06 15:45:24;;;;;;;;;;;;;;;;;;5111538;28;19962;-66
2023/04/06 15:50:15;;;;;;;;;;;;;;;;;;5091514;27;19916;-67
2023/04/06 15:52:41;;;;;;;;;;;;;;;;;;5091482;28;19913;-67
2023/04/06 15:56:46;;;;;;;;;;;;;;;;;;5092169;27;19934;-67
2023/04/06 15:59:12;;;;;;;;;;;;;;;;;;5091348;28;20355;-66
2023/04/06 16:01:41;;;;;;;;;;;;;;;;;;5089553;28;19908;-67
2023/04/06 16:04:07;;;;;;;;;;;;;;;;;;5089780;28;19908;-67
2023/04/06 16:06:33;;;;;;;;;;;;;;;;;;5091027;28;19943;-68
2023/04/06 16:08:59;;;;;;;;;;;;;;;;;;5090735;28;19915;-67
2023/04/06 16:11:25;;;;;;;;;;;;;;;;;;5090997;28;19912;-67
2023/04/06 16:13:51;;;;;;;;;;;;;;;;;;5090926;28;20326;-67
2023/04/06 16:16:17;;;;;;;;;;;;;;;;;;5090517;28;19916;-67
2023/04/06 16:18:43;;;;;;;;;;;;;;;;;;5090885;28;19934;-67
2023/04/06 16:21:09;;;;;;;;;;;;;;;;;;5090459;28;19933;-67
2023/04/06 16:23:35;;;;;;;;;;;;;;;;;;5089430;28;20376;-67
2023/04/06 16:26:01;;;;;;;;;;;;;;;;;;5090626;28;19909;-68
2023/04/06 16:28:27;;;;;;;;;;;;;;;;;;5088959;28;19909;-67
2023/04/06 16:30:53;;;;;;;;;;;;;;;;;;5090744;28;19908;-67
2023/04/06 16:33:19;;;;;;;;;;;;;;;;;;5090731;28;19916;-67
2023/04/06 16:35:45;;;;;;;;;;;;;;;;;;5088803;28;19921;-67
2023/04/06 16:38:11;;;;;;;;;;;;;;;;;;5090549;28;19908;-67
2023/04/06 16:40:37;;;;;;;;;;;;;;;;;;5090521;28;19915;-67
2023/04/06 16:43:04;;;;;;;;;;;;;;;;;;5089964;28;19908;-68
2023/04/06 16:45:29;;;;;;;;;;;;;;;;;;5089157;28;19909;-67
2023/04/06 16:47:55;;;;;;;;;;;;;;;;;;5088985;28;19912;-67
2023/04/06 16:50:21;;;;;;;;;;;;;;;;;;5089978;28;19951;-68
2023/04/06 16:52:47;;;;;;;;;;;;;;;;;;5090777;28;19909;-69
2023/04/06 16:55:13;;;;;;;;;;;;;;;;;;5098062;28;19920;-68
2023/04/06 16:57:39;;;;;;;;;;;;;;;;;;5110097;28;19988;-67
2023/04/06 17:00:06;;;;;;;;;;;;;;;;;;5110564;28;19911;-68
2023/04/06 17:02:34;;;;;;;;;;;;;;;;;;5110550;28;19908;-67
2023/04/06 17:05:00;;;;;;;;;;;;;;;;;;5110123;28;19909;-67
2023/04/06 17:07:31;;;;;;;;;;;;;;;;;;5082292;28;19923;-66
2023/04/06 17:09:57;;;;;;;;;;;;;;;;;;5096798;28;20000;-68
2023/04/06 17:12:23;;;;;;;;;;;;;;;;;;5096484;28;20344;-68
2023/04/06 17:14:49;;;;;;;;;;;;;;;;;;5096646;28;20425;-67
2023/04/06 17:17:16;;;;;;;;;;;;;;;;;;5096665;28;19917;-67
2023/04/06 17:19:42;;;;;;;;;;;;;;;;;;5096239;28;19966;-67
2023/04/06 17:22:07;;;;;;;;;;;;;;;;;;5078367;28;19908;-67
2023/04/06 17:24:34;;;;;;;;;;;;;;;;;;5096102;28;20360;-67